EBKH weather

Balen-Keiheuvel Airfield
Balen, Antwerp, Belgium

Public forecast

Using degrees Celsius for public forecast. Weather courtesy of forecast.io.

METAR (pilot weather report)

Closest report is Kleine Brogel Air Base, 9.4 nm (17.4 km) E. Retrieved 2019/04/18 23:55 UTC (9 minutes ago):

EBBL 182355Z AUTO 06006KT 9999 NCD 13/03 Q1026 BLU

TAF (pilot weather forecast)

Forecast is more than 12 hours old.

Closest forecast is Kleine Brogel Air Base, 9.4 nm (17.4 km) E. Retrieved 2019/04/01 19:30 UTC (17 days ago):

TAF TAF EBBL 011630Z 0119/0207 0119/0207 07010KT 9999 SKC BECMG 0203/0205 1805KT SCT080